Time;durP1;ratioP1;P1;durP2;ratioP2;P2;SDS_P1;SDS_P2;PMS_P1;PMS_P2;Temp;Humidity;BMP_temperature;BMP_pressure;BME280_temperature;BME280_humidity;BME280_pressure;Samples;Min_cycle;Max_cycle;Signal;HPM_P1;HPM_P2
2023/05/31 00:00:38;;;;;;;;;18.50;12.50;;;;;;;;4956272;28;45403;-71
2023/05/31 00:03:03;;;;;;;;;11.00;10.00;;;;;;;;4956371;28;45345;-71
2023/05/31 00:05:28;;;;;;;;;10.00;9.00;;;;;;;;4966308;28;45414;-71
2023/05/31 00:07:53;;;;;;;;;11.75;11.00;;;;;;;;4975167;28;47186;-70
2023/05/31 00:10:19;;;;;;;;;13.00;10.25;;;;;;;;4962335;28;45508;-70
2023/05/31 00:12:44;;;;;;;;;9.25;7.25;;;;;;;;4955684;28;45401;-72
2023/05/31 00:15:10;;;;;;;;;6.00;4.75;;;;;;;;4955648;28;45366;-71
2023/05/31 00:17:35;;;;;;;;;10.75;10.50;;;;;;;;4962915;28;45426;-71
2023/05/31 00:20:00;;;;;;;;;10.75;10.75;;;;;;;;4978689;28;45433;-71
2023/05/31 00:22:25;;;;;;;;;11.00;10.25;;;;;;;;4966227;28;45498;-71
2023/05/31 00:24:51;;;;;;;;;14.50;13.00;;;;;;;;4958863;28;45410;-71
2023/05/31 00:27:16;;;;;;;;;13.00;11.50;;;;;;;;4959133;28;45916;-71
2023/05/31 00:29:41;;;;;;;;;9.75;9.75;;;;;;;;4957851;28;45334;-71
2023/05/31 00:32:07;;;;;;;;;15.25;12.00;;;;;;;;4959023;28;45413;-71
2023/05/31 00:34:32;;;;;;;;;14.75;13.75;;;;;;;;4959363;28;45416;-71
2023/05/31 00:36:57;;;;;;;;;14.50;14.50;;;;;;;;4958951;28;46245;-72
2023/05/31 00:39:23;;;;;;;;;18.00;15.25;;;;;;;;4959070;28;45357;-72
2023/05/31 00:41:48;;;;;;;;;10.25;8.25;;;;;;;;4959054;28;45415;-71
2023/05/31 00:44:13;;;;;;;;;12.75;10.25;;;;;;;;4958696;28;45322;-71
2023/05/31 00:46:39;;;;;;;;;16.00;14.00;;;;;;;;4958594;28;45455;-72
2023/05/31 00:49:05;;;;;;;;;15.25;12.25;;;;;;;;4959019;28;45363;-71
2023/05/31 00:51:31;;;;;;;;;15.50;10.50;;;;;;;;4957764;28;45406;-71
2023/05/31 00:53:57;;;;;;;;;14.25;12.75;;;;;;;;4958675;28;45342;-71
2023/05/31 00:56:22;;;;;;;;;11.50;11.00;;;;;;;;4958308;28;45904;-71
2023/05/31 00:58:48;;;;;;;;;13.00;10.75;;;;;;;;4972272;28;45480;-70
2023/05/31 01:01:14;;;;;;;;;14.00;13.25;;;;;;;;4978290;28;45404;-71
2023/05/31 01:03:40;;;;;;;;;12.50;11.00;;;;;;;;4978475;28;45256;-71
2023/05/31 01:06:05;;;;;;;;;12.50;12.50;;;;;;;;4961092;28;47186;-71
2023/05/31 01:08:31;;;;;;;;;11.75;11.50;;;;;;;;4958404;28;45494;-71
2023/05/31 01:10:58;;;;;;;;;12.75;12.50;;;;;;;;4958708;28;45689;-71
2023/05/31 01:13:26;;;;;;;;;14.25;12.25;;;;;;;;4958508;28;45401;-71
2023/05/31 01:16:11;;;;;;;;;13.25;13.25;;;;;;;;4958420;28;45684;-71
2023/05/31 01:18:44;;;;;;;;;13.50;13.50;;;;;;;;4968005;28;45467;-71
2023/05/31 01:21:10;;;;;;;;;14.25;13.75;;;;;;;;4965400;28;45368;-71
2023/05/31 01:23:42;;;;;;;;;17.25;15.00;;;;;;;;4977843;28;45235;-71
2023/05/31 01:26:20;;;;;;;;;12.50;11.00;;;;;;;;4964329;28;46375;-71
2023/05/31 01:28:49;;;;;;;;;14.25;10.75;;;;;;;;4957920;28;45341;-72
2023/05/31 01:31:16;;;;;;;;;11.00;10.25;;;;;;;;4963419;28;45395;-72
2023/05/31 01:33:42;;;;;;;;;13.25;11.25;;;;;;;;4971691;28;45659;-71
2023/05/31 01:36:07;;;;;;;;;11.75;11.75;;;;;;;;4958064;28;46434;-71
2023/05/31 01:38:32;;;;;;;;;14.00;12.75;;;;;;;;4958149;28;45396;-71
2023/05/31 01:40:58;;;;;;;;;13.00;11.50;;;;;;;;4940714;28;45707;-71
2023/05/31 01:43:25;;;;;;;;;13.50;13.50;;;;;;;;4958223;28;45393;-71
2023/05/31 01:45:51;;;;;;;;;13.25;13.25;;;;;;;;4957885;28;46463;-71
2023/05/31 01:48:17;;;;;;;;;11.75;11.75;;;;;;;;4976438;28;45344;-71
2023/05/31 01:50:43;;;;;;;;;15.00;12.00;;;;;;;;4973347;28;45439;-70
2023/05/31 01:53:08;;;;;;;;;12.50;11.00;;;;;;;;4957933;28;45521;-71
2023/05/31 01:55:34;;;;;;;;;12.50;12.25;;;;;;;;4957429;28;45599;-70
2023/05/31 01:58:00;;;;;;;;;14.00;12.00;;;;;;;;4957721;28;45358;-71
2023/05/31 02:00:26;;;;;;;;;12.75;11.75;;;;;;;;4957650;28;45369;-70
2023/05/31 02:02:51;;;;;;;;;12.50;12.50;;;;;;;;4957532;28;45350;-71
2023/05/31 02:05:17;;;;;;;;;14.75;14.25;;;;;;;;4957713;28;45442;-71
2023/05/31 02:07:44;;;;;;;;;12.75;11.00;;;;;;;;4957742;28;45461;-70
2023/05/31 02:10:10;;;;;;;;;12.75;12.50;;;;;;;;4957493;28;45458;-71
2023/05/31 02:12:35;;;;;;;;;14.25;11.75;;;;;;;;4957550;28;45482;-70
2023/05/31 02:15:00;;;;;;;;;12.00;11.00;;;;;;;;4956045;28;46653;-71
2023/05/31 02:17:26;;;;;;;;;14.00;13.00;;;;;;;;4957205;28;45361;-71
2023/05/31 02:19:52;;;;;;;;;13.75;12.50;;;;;;;;4957582;28;45357;-72
2023/05/31 02:22:17;;;;;;;;;14.00;14.00;;;;;;;;4956862;28;45345;-72
2023/05/31 02:24:43;;;;;;;;;13.25;10.50;;;;;;;;4959932;28;45546;-71
2023/05/31 02:27:08;;;;;;;;;16.50;16.25;;;;;;;;4974826;28;45454;-72
2023/05/31 02:29:33;;;;;;;;;15.25;14.50;;;;;;;;4970346;28;45331;-70
2023/05/31 02:31:58;;;;;;;;;17.75;14.75;;;;;;;;4957295;28;45499;-72
2023/05/31 02:34:24;;;;;;;;;11.75;10.25;;;;;;;;4956796;28;45610;-71
2023/05/31 02:36:49;;;;;;;;;15.50;14.50;;;;;;;;4957081;28;45434;-71
2023/05/31 02:39:14;;;;;;;;;16.25;10.25;;;;;;;;4957233;28;45326;-71
2023/05/31 02:41:40;;;;;;;;;13.25;12.50;;;;;;;;4956507;28;45282;-71
2023/05/31 02:44:05;;;;;;;;;14.00;13.00;;;;;;;;4956372;28;46512;-71
2023/05/31 02:46:30;;;;;;;;;12.25;12.00;;;;;;;;4957172;28;45330;-72
2023/05/31 02:48:56;;;;;;;;;16.50;15.75;;;;;;;;4957584;28;46164;-73
2023/05/31 02:51:21;;;;;;;;;20.00;16.50;;;;;;;;4957321;28;45552;-72
2023/05/31 02:53:46;;;;;;;;;15.50;13.25;;;;;;;;4956820;28;46246;-72
2023/05/31 02:56:11;;;;;;;;;15.00;14.00;;;;;;;;4956907;28;45444;-71
2023/05/31 02:58:37;;;;;;;;;15.75;13.00;;;;;;;;4957154;28;45417;-71
2023/05/31 03:01:02;;;;;;;;;14.75;12.00;;;;;;;;4955634;28;45476;-71
2023/05/31 03:03:27;;;;;;;;;14.25;13.50;;;;;;;;4955596;28;47106;-71
2023/05/31 03:05:54;;;;;;;;;15.00;15.00;;;;;;;;4956992;28;45502;-71
2023/05/31 03:08:19;;;;;;;;;12.50;9.50;;;;;;;;4956718;28;45531;-71
2023/05/31 03:10:45;;;;;;;;;15.75;12.25;;;;;;;;4956498;28;45425;-71
2023/05/31 03:13:10;;;;;;;;;15.00;13.75;;;;;;;;4956645;28;45543;-71
2023/05/31 03:15:35;;;;;;;;;13.75;13.25;;;;;;;;4956469;28;45481;-71
2023/05/31 03:18:01;;;;;;;;;11.75;8.25;;;;;;;;4956615;28;45385;-71
2023/05/31 03:20:26;;;;;;;;;13.75;13.75;;;;;;;;4956518;28;45650;-71
2023/05/31 03:22:51;;;;;;;;;16.25;14.75;;;;;;;;4954812;28;47155;-71
2023/05/31 03:25:16;;;;;;;;;13.50;11.00;;;;;;;;4964352;28;45453;-71
2023/05/31 03:27:41;;;;;;;;;13.25;12.00;;;;;;;;4975711;28;45413;-71
2023/05/31 03:30:07;;;;;;;;;14.25;14.25;;;;;;;;4975523;28;45339;-72
2023/05/31 03:32:32;;;;;;;;;16.00;14.00;;;;;;;;4975663;28;47013;-71
2023/05/31 03:34:57;;;;;;;;;20.25;18.00;;;;;;;;4958263;28;45428;-71
2023/05/31 03:37:22;;;;;;;;;14.50;13.50;;;;;;;;4956406;28;45507;-71
2023/05/31 03:39:48;;;;;;;;;16.00;14.25;;;;;;;;4955420;28;45299;-71
2023/05/31 03:42:13;;;;;;;;;13.50;13.50;;;;;;;;4956380;28;45387;-71
2023/05/31 03:44:39;;;;;;;;;13.25;13.00;;;;;;;;4956342;28;45421;-71
2023/05/31 03:47:04;;;;;;;;;13.25;11.00;;;;;;;;4956115;28;45323;-71
2023/05/31 03:49:29;;;;;;;;;14.00;14.00;;;;;;;;4956403;28;45531;-71
2023/05/31 03:51:55;;;;;;;;;15.50;13.50;;;;;;;;4956052;28;45454;-71
2023/05/31 03:54:20;;;;;;;;;13.25;11.25;;;;;;;;4955384;28;45461;-72
2023/05/31 03:56:45;;;;;;;;;13.50;13.50;;;;;;;;4956490;28;45373;-73
2023/05/31 03:59:10;;;;;;;;;15.50;13.00;;;;;;;;4956405;28;45335;-71
2023/05/31 04:01:35;;;;;;;;;11.50;10.25;;;;;;;;4955956;28;45448;-70
2023/05/31 04:04:01;;;;;;;;;15.50;12.00;;;;;;;;4954865;28;46009;-72
2023/05/31 04:06:26;;;;;;;;;17.25;13.25;;;;;;;;4956187;28;45389;-72
2023/05/31 04:08:52;;;;;;;;;18.50;16.25;;;;;;;;4956131;28;45314;-72
2023/05/31 04:11:17;;;;;;;;;18.00;14.50;;;;;;;;4955769;28;45433;-73
2023/05/31 04:13:42;;;;;;;;;17.00;15.75;;;;;;;;4955651;28;45653;-73
2023/05/31 04:16:07;;;;;;;;;13.50;12.00;;;;;;;;4955542;28;45322;-73
2023/05/31 04:18:33;;;;;;;;;14.50;12.50;;;;;;;;4955885;28;45361;-72
2023/05/31 04:20:58;;;;;;;;;15.75;13.00;;;;;;;;4955024;28;45554;-72
2023/05/31 04:23:23;;;;;;;;;13.00;12.25;;;;;;;;4955450;28;45423;-71
2023/05/31 04:25:48;;;;;;;;;11.50;11.00;;;;;;;;4967876;28;45436;-72
2023/05/31 04:28:15;;;;;;;;;13.75;13.75;;;;;;;;4974919;28;45378;-71
2023/05/31 04:30:40;;;;;;;;;18.25;11.75;;;;;;;;4974837;28;46446;-71
2023/05/31 04:33:06;;;;;;;;;12.75;9.75;;;;;;;;4973015;28;45346;-72
2023/05/31 04:35:32;;;;;;;;;14.00;11.75;;;;;;;;4955402;28;45364;-71
2023/05/31 04:37:59;;;;;;;;;12.25;12.25;;;;;;;;4955623;28;45335;-72
2023/05/31 04:40:31;;;;;;;;;14.00;13.50;;;;;;;;4955067;28;46316;-72
2023/05/31 04:42:57;;;;;;;;;16.75;13.00;;;;;;;;4955710;28;45519;-72
2023/05/31 04:45:23;;;;;;;;;15.75;13.75;;;;;;;;4955679;28;45499;-71
2023/05/31 04:47:49;;;;;;;;;12.50;10.25;;;;;;;;4955873;28;45518;-72
2023/05/31 04:50:15;;;;;;;;;13.00;11.25;;;;;;;;4955314;28;46390;-71
2023/05/31 04:52:41;;;;;;;;;17.00;15.00;;;;;;;;4955687;28;45417;-72
2023/05/31 04:55:07;;;;;;;;;12.25;12.25;;;;;;;;4955608;28;45545;-71
2023/05/31 04:57:32;;;;;;;;;13.25;12.50;;;;;;;;4955286;28;45430;-71
2023/05/31 04:59:57;;;;;;;;;11.25;11.25;;;;;;;;4954240;28;47186;-70
2023/05/31 05:02:22;;;;;;;;;13.50;13.50;;;;;;;;4955457;28;45580;-71
2023/05/31 05:04:48;;;;;;;;;13.00;12.00;;;;;;;;4956806;28;45286;-71
2023/05/31 05:07:13;;;;;;;;;15.50;11.25;;;;;;;;4958500;28;45597;-71
2023/05/31 05:09:38;;;;;;;;;15.50;12.50;;;;;;;;4958607;28;45412;-72
2023/05/31 05:12:04;;;;;;;;;13.50;12.25;;;;;;;;4960067;28;45465;-69
2023/05/31 05:14:30;;;;;;;;;15.25;13.50;;;;;;;;4960205;28;45458;-69
2023/05/31 05:16:55;;;;;;;;;12.00;11.25;;;;;;;;4956977;28;45464;-69
2023/05/31 05:19:21;;;;;;;;;14.00;13.00;;;;;;;;4956557;28;47576;-69
2023/05/31 05:21:46;;;;;;;;;16.50;13.00;;;;;;;;4958356;28;45450;-71
2023/05/31 05:24:11;;;;;;;;;15.00;13.75;;;;;;;;4958009;28;45757;-69
2023/05/31 05:26:36;;;;;;;;;10.50;9.25;;;;;;;;4961781;28;45323;-69
2023/05/31 05:29:02;;;;;;;;;15.50;14.75;;;;;;;;4956290;28;45384;-69
2023/05/31 05:31:27;;;;;;;;;14.00;12.00;;;;;;;;4957766;28;45307;-70
2023/05/31 05:33:52;;;;;;;;;13.50;13.00;;;;;;;;4957753;28;45426;-70
2023/05/31 05:36:18;;;;;;;;;12.75;11.00;;;;;;;;4958180;28;45326;-70
2023/05/31 05:38:43;;;;;;;;;14.75;11.25;;;;;;;;4957679;28;46210;-69
2023/05/31 05:41:12;;;;;;;;;14.50;12.00;;;;;;;;4957207;28;45338;-69
2023/05/31 05:43:37;;;;;;;;;13.25;13.25;;;;;;;;4956945;28;45479;-68
2023/05/31 05:46:02;;;;;;;;;12.25;12.25;;;;;;;;4957969;28;45481;-69
2023/05/31 05:48:27;;;;;;;;;14.50;12.50;;;;;;;;4957678;28;46218;-68
2023/05/31 05:50:53;;;;;;;;;15.25;14.50;;;;;;;;4957838;28;45445;-69
2023/05/31 05:53:18;;;;;;;;;13.50;13.00;;;;;;;;4957898;28;45389;-68
2023/05/31 05:55:53;;;;;;;;;15.00;10.75;;;;;;;;4957348;28;45659;-68
2023/05/31 05:58:18;;;;;;;;;15.25;11.25;;;;;;;;4957666;28;45370;-68
2023/05/31 06:00:47;;;;;;;;;13.00;12.25;;;;;;;;4957780;28;45287;-68
2023/05/31 06:03:12;;;;;;;;;10.75;10.25;;;;;;;;4957741;28;45342;-68
2023/05/31 06:05:38;;;;;;;;;14.50;9.50;;;;;;;;4957070;28;45339;-69
2023/05/31 06:08:03;;;;;;;;;13.75;13.25;;;;;;;;4957343;28;47112;-70
2023/05/31 06:10:29;;;;;;;;;11.75;10.75;;;;;;;;4956239;28;45430;-70
2023/05/31 06:12:54;;;;;;;;;12.50;11.00;;;;;;;;4957385;28;45532;-71
2023/05/31 06:15:19;;;;;;;;;15.25;12.25;;;;;;;;4957176;28;45324;-70
2023/05/31 06:17:45;;;;;;;;;10.25;10.25;;;;;;;;4955946;28;46238;-73
2023/05/31 06:20:10;;;;;;;;;11.50;10.25;;;;;;;;4957670;28;45511;-72
2023/05/31 06:22:36;;;;;;;;;12.25;9.00;;;;;;;;4957136;28;45768;-72
2023/05/31 06:25:02;;;;;;;;;13.00;12.75;;;;;;;;4963184;28;45778;-74
2023/05/31 06:27:27;;;;;;;;;11.25;9.00;;;;;;;;4976522;28;45528;-73
2023/05/31 06:29:57;;;;;;;;;12.50;11.00;;;;;;;;4967812;28;45572;-73
2023/05/31 06:32:22;;;;;;;;;14.75;12.25;;;;;;;;4957158;28;45436;-73
2023/05/31 06:34:48;;;;;;;;;11.50;11.50;;;;;;;;4956733;28;45382;-73
2023/05/31 06:37:13;;;;;;;;;11.00;10.75;;;;;;;;4957258;28;45619;-73
2023/05/31 06:39:39;;;;;;;;;10.75;9.00;;;;;;;;4957001;28;45578;-73
2023/05/31 06:42:05;;;;;;;;;13.00;11.00;;;;;;;;4957364;28;45377;-73
2023/05/31 06:44:30;;;;;;;;;12.00;9.75;;;;;;;;4956354;28;45383;-73
2023/05/31 06:46:55;;;;;;;;;12.25;11.00;;;;;;;;4954311;28;48436;-74
2023/05/31 06:49:21;;;;;;;;;12.50;10.50;;;;;;;;4956021;28;45366;-73
2023/05/31 06:51:46;;;;;;;;;13.50;12.50;;;;;;;;4956075;28;45385;-73
2023/05/31 06:54:11;;;;;;;;;11.75;10.75;;;;;;;;4956130;28;45765;-72
2023/05/31 06:56:36;;;;;;;;;12.25;12.25;;;;;;;;4955979;28;45520;-73
2023/05/31 06:59:02;;;;;;;;;14.00;11.00;;;;;;;;4954445;28;45572;-73
2023/05/31 07:01:28;;;;;;;;;14.50;12.00;;;;;;;;4956306;28;45415;-73
2023/05/31 07:03:53;;;;;;;;;11.00;11.00;;;;;;;;4955529;28;45567;-73
2023/05/31 07:06:19;;;;;;;;;11.25;11.25;;;;;;;;4956158;28;45653;-72
2023/05/31 07:08:45;;;;;;;;;8.75;8.00;;;;;;;;4956609;28;45337;-73
2023/05/31 07:11:12;;;;;;;;;8.25;8.25;;;;;;;;4955125;28;45413;-73
2023/05/31 07:13:37;;;;;;;;;14.25;11.75;;;;;;;;4956775;28;45463;-74
2023/05/31 07:16:02;;;;;;;;;10.25;10.25;;;;;;;;4955135;28;46282;-73
2023/05/31 07:18:27;;;;;;;;;11.25;11.00;;;;;;;;4956327;28;45592;-73
2023/05/31 07:20:56;;;;;;;;;12.25;9.50;;;;;;;;4956341;28;45431;-73
2023/05/31 07:23:21;;;;;;;;;10.25;9.50;;;;;;;;4956628;28;45605;-73
2023/05/31 07:25:46;;;;;;;;;11.50;10.75;;;;;;;;4966605;28;48324;-73
2023/05/31 07:28:12;;;;;;;;;11.50;11.50;;;;;;;;4975372;28;45396;-72
2023/05/31 07:30:37;;;;;;;;;9.25;8.25;;;;;;;;4975585;28;45440;-73
2023/05/31 07:33:02;;;;;;;;;13.00;9.75;;;;;;;;4972810;28;45357;-74
2023/05/31 07:35:27;;;;;;;;;8.75;8.75;;;;;;;;4956170;28;45674;-73
2023/05/31 07:37:52;;;;;;;;;11.00;9.75;;;;;;;;4956283;28;45441;-74
2023/05/31 07:40:18;;;;;;;;;12.75;10.75;;;;;;;;4938945;28;45375;-72
2023/05/31 07:42:43;;;;;;;;;11.75;11.00;;;;;;;;4956448;28;45567;-73
2023/05/31 07:45:09;;;;;;;;;10.75;8.75;;;;;;;;4955794;28;46819;-72
2023/05/31 07:47:34;;;;;;;;;9.50;9.50;;;;;;;;4954708;28;45609;-73
2023/05/31 07:49:59;;;;;;;;;12.50;9.25;;;;;;;;4956722;28;45755;-72
2023/05/31 07:52:24;;;;;;;;;13.75;8.75;;;;;;;;4955934;28;45421;-68
2023/05/31 07:54:50;;;;;;;;;10.25;9.25;;;;;;;;4955908;28;46687;-67
2023/05/31 07:57:15;;;;;;;;;11.25;10.75;;;;;;;;4955627;28;45799;-68
2023/05/31 07:59:40;;;;;;;;;8.25;8.25;;;;;;;;4956191;28;45378;-68
2023/05/31 08:02:06;;;;;;;;;11.25;10.25;;;;;;;;4956336;28;45381;-68
2023/05/31 08:04:31;;;;;;;;;9.50;9.50;;;;;;;;4955654;28;45470;-68
2023/05/31 08:06:57;;;;;;;;;7.50;7.50;;;;;;;;4956047;28;45485;-67
2023/05/31 08:09:22;;;;;;;;;11.75;11.50;;;;;;;;4956095;28;45406;-67
2023/05/31 08:11:47;;;;;;;;;7.50;6.75;;;;;;;;4956043;28;45500;-67
2023/05/31 08:14:13;;;;;;;;;7.25;6.75;;;;;;;;4955939;28;47239;-68
2023/05/31 08:16:39;;;;;;;;;9.50;8.00;;;;;;;;4955832;28;45369;-67
2023/05/31 08:19:04;;;;;;;;;8.25;8.25;;;;;;;;4956186;28;45682;-67
2023/05/31 08:21:31;;;;;;;;;6.50;6.50;;;;;;;;4956232;28;45711;-67
2023/05/31 08:23:56;;;;;;;;;8.50;8.50;;;;;;;;4955642;28;46073;-67
2023/05/31 08:26:21;;;;;;;;;8.00;7.75;;;;;;;;4971565;28;45452;-67
2023/05/31 08:28:47;;;;;;;;;8.25;7.00;;;;;;;;4974773;28;45460;-67
2023/05/31 08:31:12;;;;;;;;;11.25;10.50;;;;;;;;4974692;28;45515;-67
2023/05/31 08:33:40;;;;;;;;;9.75;8.50;;;;;;;;4968229;28;45509;-68
2023/05/31 08:36:05;;;;;;;;;6.50;6.50;;;;;;;;4955442;28;45540;-68
2023/05/31 08:38:30;;;;;;;;;8.25;7.00;;;;;;;;4955246;28;45317;-68
2023/05/31 08:41:02;;;;;;;;;6.00;5.75;;;;;;;;4958477;28;45521;-68
2023/05/31 08:43:28;;;;;;;;;9.50;8.00;;;;;;;;4958290;28;45584;-68
2023/05/31 08:45:54;;;;;;;;;7.50;6.00;;;;;;;;4957372;28;45847;-67
2023/05/31 08:48:42;;;;;;;;;11.50;9.50;;;;;;;;4957795;28;45444;-68
2023/05/31 08:51:08;;;;;;;;;4.50;4.50;;;;;;;;4959092;28;45334;-69
2023/05/31 08:53:34;;;;;;;;;12.00;9.75;;;;;;;;4958518;28;46621;-67
2023/05/31 08:56:01;;;;;;;;;9.00;7.25;;;;;;;;4958352;28;45418;-67
2023/05/31 08:58:28;;;;;;;;;9.25;7.75;;;;;;;;4958711;28;45543;-68
2023/05/31 09:00:53;;;;;;;;;7.25;7.25;;;;;;;;4958926;28;45509;-68
2023/05/31 09:03:18;;;;;;;;;10.50;7.25;;;;;;;;4958539;28;46332;-68
2023/05/31 09:05:43;;;;;;;;;6.50;6.50;;;;;;;;4958760;28;45371;-67
2023/05/31 09:08:09;;;;;;;;;9.25;9.25;;;;;;;;4954852;28;45357;-68
2023/05/31 09:10:34;;;;;;;;;7.75;6.00;;;;;;;;4958497;28;45415;-68
2023/05/31 09:12:59;;;;;;;;;7.75;7.75;;;;;;;;4958128;28;45551;-68
2023/05/31 09:15:25;;;;;;;;;9.50;8.75;;;;;;;;4957289;28;45402;-68
2023/05/31 09:17:51;;;;;;;;;8.50;7.75;;;;;;;;4958200;28;45409;-67
2023/05/31 09:20:18;;;;;;;;;5.25;4.50;;;;;;;;4958167;28;45409;-68
2023/05/31 09:22:48;;;;;;;;;6.00;6.00;;;;;;;;4957870;28;47347;-67
2023/05/31 09:25:13;;;;;;;;;6.00;6.00;;;;;;;;4964969;28;45387;-67
2023/05/31 09:27:39;;;;;;;;;6.50;6.00;;;;;;;;4977701;28;45469;-67
2023/05/31 09:30:06;;;;;;;;;8.50;8.25;;;;;;;;4967566;28;45472;-68
2023/05/31 09:32:33;;;;;;;;;8.00;5.50;;;;;;;;4957665;28;46568;-68
2023/05/31 09:35:17;;;;;;;;;9.75;8.00;;;;;;;;4957932;28;45349;-69
2023/05/31 09:37:46;;;;;;;;;7.50;7.00;;;;;;;;4957967;28;45398;-68
2023/05/31 09:40:15;;;;;;;;;6.50;6.50;;;;;;;;4957684;28;45306;-69
2023/05/31 09:42:46;;;;;;;;;7.25;5.50;;;;;;;;4957903;28;45480;-69
2023/05/31 09:45:12;;;;;;;;;4.25;4.25;;;;;;;;4957990;28;45382;-69
2023/05/31 09:47:37;;;;;;;;;6.50;5.50;;;;;;;;4957897;28;45405;-69
2023/05/31 09:50:03;;;;;;;;;5.00;5.00;;;;;;;;4958119;28;45422;-69
2023/05/31 09:52:32;;;;;;;;;7.25;6.25;;;;;;;;4958192;28;45477;-68
2023/05/31 09:55:04;;;;;;;;;7.25;6.25;;;;;;;;4957341;28;45287;-68
2023/05/31 09:57:33;;;;;;;;;5.25;5.00;;;;;;;;4957851;28;45437;-69
2023/05/31 10:00:04;;;;;;;;;4.75;4.00;;;;;;;;4957813;28;45315;-69
2023/05/31 10:02:30;;;;;;;;;3.00;2.75;;;;;;;;4957555;28;46474;-70
2023/05/31 10:04:58;;;;;;;;;4.75;3.50;;;;;;;;4957761;28;45494;-69
2023/05/31 10:07:26;;;;;;;;;4.75;4.75;;;;;;;;4957846;28;45354;-69
2023/05/31 10:09:51;;;;;;;;;5.25;4.50;;;;;;;;4957755;28;45553;-68
2023/05/31 10:12:18;;;;;;;;;3.75;3.75;;;;;;;;4957331;28;45397;-69
2023/05/31 10:14:48;;;;;;;;;4.75;4.00;;;;;;;;4960139;28;46445;-69
2023/05/31 10:17:16;;;;;;;;;6.25;6.25;;;;;;;;4952559;28;45464;-69
2023/05/31 10:19:44;;;;;;;;;3.25;3.25;;;;;;;;4956306;28;45674;-68
2023/05/31 10:22:11;;;;;;;;;8.00;6.00;;;;;;;;4954990;28;45869;-68
2023/05/31 10:24:48;;;;;;;;;6.00;5.00;;;;;;;;4957096;28;45500;-67
2023/05/31 10:27:21;;;;;;;;;6.50;5.50;;;;;;;;4957072;28;45168;-67
2023/05/31 10:29:53;;;;;;;;;6.50;5.50;;;;;;;;4957435;28;45492;-67
2023/05/31 10:32:20;;;;;;;;;4.50;4.25;;;;;;;;4957036;28;46494;-67
2023/05/31 10:34:46;;;;;;;;;5.75;4.50;;;;;;;;4957436;28;45321;-67
2023/05/31 10:37:11;;;;;;;;;5.50;4.75;;;;;;;;4956634;28;45449;-67
2023/05/31 10:39:48;;;;;;;;;6.25;5.25;;;;;;;;4956773;28;45477;-68
2023/05/31 10:42:16;;;;;;;;;6.25;5.00;;;;;;;;4957243;28;45466;-68
2023/05/31 10:44:51;;;;;;;;;2.75;2.75;;;;;;;;4957100;28;45411;-68
2023/05/31 10:47:19;;;;;;;;;3.00;3.00;;;;;;;;4956878;28;45474;-73
2023/05/31 10:49:45;;;;;;;;;3.25;3.25;;;;;;;;4956927;28;45509;-72
2023/05/31 10:52:16;;;;;;;;;4.00;4.00;;;;;;;;4956540;28;46439;-69
2023/05/31 10:54:41;;;;;;;;;4.25;3.00;;;;;;;;4957130;28;45367;-69
2023/05/31 10:57:07;;;;;;;;;4.75;4.75;;;;;;;;4956863;28;45247;-68
2023/05/31 10:59:40;;;;;;;;;4.00;3.75;;;;;;;;4957006;28;45421;-75
2023/05/31 11:02:06;;;;;;;;;3.00;3.00;;;;;;;;4956116;28;46399;-70
2023/05/31 11:04:31;;;;;;;;;3.75;3.50;;;;;;;;4956417;28;45497;-72
2023/05/31 11:07:14;;;;;;;;;4.50;4.50;;;;;;;;4956820;28;45460;-69
2023/05/31 11:09:39;;;;;;;;;5.50;4.00;;;;;;;;4956937;28;45560;-68
2023/05/31 11:12:05;;;;;;;;;4.00;4.00;;;;;;;;4956486;28;45459;-69
2023/05/31 11:14:31;;;;;;;;;2.75;2.75;;;;;;;;4956864;28;45437;-69
2023/05/31 11:16:57;;;;;;;;;6.00;5.00;;;;;;;;4956579;28;45847;-69
2023/05/31 11:19:43;;;;;;;;;6.00;5.00;;;;;;;;4956813;28;45460;-69
2023/05/31 11:22:08;;;;;;;;;4.25;3.00;;;;;;;;4951173;28;46070;-70
2023/05/31 11:24:36;;;;;;;;;3.00;3.00;;;;;;;;4958633;28;45421;-70
2023/05/31 11:27:02;;;;;;;;;4.00;4.00;;;;;;;;4969134;28;45550;-69
2023/05/31 11:29:46;;;;;;;;;4.25;4.25;;;;;;;;4955207;28;45402;-68
2023/05/31 11:32:12;;;;;;;;;5.00;3.25;;;;;;;;4956080;28;46082;-69
2023/05/31 11:34:53;;;;;;;;;4.00;4.00;;;;;;;;4956340;28;45469;-68
2023/05/31 11:37:19;;;;;;;;;4.00;4.00;;;;;;;;4956549;28;45419;-70
2023/05/31 11:39:47;;;;;;;;;4.00;4.00;;;;;;;;4955920;28;45524;-69
2023/05/31 11:42:13;;;;;;;;;4.75;4.75;;;;;;;;4956425;28;46401;-68
2023/05/31 11:44:42;;;;;;;;;5.00;5.00;;;;;;;;4956139;28;45434;-68
2023/05/31 11:47:09;;;;;;;;;5.50;4.50;;;;;;;;4955982;28;45360;-69
2023/05/31 11:49:35;;;;;;;;;4.50;4.50;;;;;;;;4956156;28;45485;-69
2023/05/31 11:52:01;;;;;;;;;5.75;4.00;;;;;;;;4956239;28;45502;-69
2023/05/31 11:54:29;;;;;;;;;4.75;4.75;;;;;;;;4956273;28;45685;-69
2023/05/31 11:56:56;;;;;;;;;4.25;2.75;;;;;;;;4956160;28;45406;-69
2023/05/31 11:59:21;;;;;;;;;7.25;7.00;;;;;;;;4956106;28;45678;-70
2023/05/31 12:01:46;;;;;;;;;5.50;5.00;;;;;;;;4955524;28;47412;-69
2023/05/31 12:04:11;;;;;;;;;4.50;4.50;;;;;;;;4954657;28;45401;-69
2023/05/31 12:06:36;;;;;;;;;4.00;4.00;;;;;;;;4955599;28;45486;-70
2023/05/31 12:09:02;;;;;;;;;5.00;4.00;;;;;;;;4956095;28;45386;-69
2023/05/31 12:11:28;;;;;;;;;4.50;4.50;;;;;;;;4954594;28;45865;-69
2023/05/31 12:13:54;;;;;;;;;3.50;3.50;;;;;;;;4956150;28;45414;-69
2023/05/31 12:16:20;;;;;;;;;7.50;5.25;;;;;;;;4959303;28;45704;-69
2023/05/31 12:18:47;;;;;;;;;5.00;5.00;;;;;;;;4959176;28;45501;-69
2023/05/31 12:21:15;;;;;;;;;4.75;4.75;;;;;;;;4959446;28;46410;-69
2023/05/31 12:23:57;;;;;;;;;4.00;3.75;;;;;;;;4959344;28;45404;-69
2023/05/31 12:26:23;;;;;;;;;5.00;5.00;;;;;;;;4962193;28;45523;-69
2023/05/31 12:28:49;;;;;;;;;5.75;4.75;;;;;;;;4957153;28;45361;-69
2023/05/31 12:31:22;;;;;;;;;6.00;5.00;;;;;;;;4957681;28;46326;-69
2023/05/31 12:33:51;;;;;;;;;6.75;5.75;;;;;;;;4957962;28;45337;-69
2023/05/31 12:36:17;;;;;;;;;7.00;6.00;;;;;;;;4956756;28;45385;-69
2023/05/31 12:38:42;;;;;;;;;5.00;5.00;;;;;;;;4959119;28;45653;-69
2023/05/31 12:41:07;;;;;;;;;3.00;3.00;;;;;;;;4958993;28;46139;-69
2023/05/31 12:43:32;;;;;;;;;6.00;6.00;;;;;;;;4959119;28;45478;-69
2023/05/31 12:45:58;;;;;;;;;6.75;6.00;;;;;;;;4958901;28;45412;-69
2023/05/31 12:48:24;;;;;;;;;7.00;7.00;;;;;;;;4958178;28;45428;-70
2023/05/31 12:50:49;;;;;;;;;6.00;5.00;;;;;;;;4958078;28;45524;-68
2023/05/31 12:53:15;;;;;;;;;7.25;6.25;;;;;;;;4957468;28;45401;-70
2023/05/31 12:55:41;;;;;;;;;5.00;4.50;;;;;;;;4953720;28;45444;-69
2023/05/31 12:58:06;;;;;;;;;6.25;4.00;;;;;;;;4947396;28;46149;-69
2023/05/31 13:00:32;;;;;;;;;7.50;6.25;;;;;;;;4953653;28;45505;-69
2023/05/31 13:02:57;;;;;;;;;7.75;5.75;;;;;;;;4954324;28;46047;-70
2023/05/31 13:05:25;;;;;;;;;7.50;7.50;;;;;;;;4955350;28;45421;-69
2023/05/31 13:07:51;;;;;;;;;6.00;6.00;;;;;;;;4958422;28;45347;-68
2023/05/31 13:10:16;;;;;;;;;3.25;3.25;;;;;;;;4945238;28;46318;-70
2023/05/31 13:12:41;;;;;;;;;6.00;6.00;;;;;;;;4953591;28;45403;-69
2023/05/31 13:15:07;;;;;;;;;4.75;4.75;;;;;;;;4958205;28;45351;-69
2023/05/31 13:17:33;;;;;;;;;5.25;4.75;;;;;;;;4957934;28;45328;-69
2023/05/31 13:19:58;;;;;;;;;5.50;5.00;;;;;;;;4957616;28;45553;-70
2023/05/31 13:22:23;;;;;;;;;6.00;5.25;;;;;;;;4955131;28;45330;-67
2023/05/31 13:24:49;;;;;;;;;5.75;5.75;;;;;;;;4953746;28;45377;-67
2023/05/31 13:27:14;;;;;;;;;5.00;5.00;;;;;;;;4955078;28;45470;-67
2023/05/31 13:29:40;;;;;;;;;4.50;4.50;;;;;;;;4957726;28;46334;-67
2023/05/31 13:32:05;;;;;;;;;5.50;5.50;;;;;;;;4946391;28;45379;-67
2023/05/31 13:34:30;;;;;;;;;5.00;5.00;;;;;;;;4952417;28;45302;-67
2023/05/31 13:36:56;;;;;;;;;5.50;5.50;;;;;;;;4941672;28;45475;-67
2023/05/31 13:39:22;;;;;;;;;5.25;4.50;;;;;;;;4952303;28;45471;-67
2023/05/31 13:41:48;;;;;;;;;3.00;3.00;;;;;;;;4947718;28;45279;-67
2023/05/31 13:44:15;;;;;;;;;4.75;4.75;;;;;;;;4957715;28;45337;-67
2023/05/31 13:46:41;;;;;;;;;4.25;4.25;;;;;;;;4956848;28;45456;-67
2023/05/31 13:49:06;;;;;;;;;3.00;3.00;;;;;;;;4940791;28;47481;-67
2023/05/31 13:51:32;;;;;;;;;4.00;3.00;;;;;;;;4954382;28;45563;-68
2023/05/31 13:53:57;;;;;;;;;4.00;4.00;;;;;;;;4953408;28;45358;-67
2023/05/31 13:56:22;;;;;;;;;4.75;3.75;;;;;;;;4954215;28;45608;-70
2023/05/31 13:58:47;;;;;;;;;4.00;4.00;;;;;;;;4952832;28;46334;-68
2023/05/31 14:01:13;;;;;;;;;4.25;4.25;;;;;;;;4954108;28;45412;-68
2023/05/31 14:03:38;;;;;;;;;4.00;4.00;;;;;;;;4954539;28;45407;-67
2023/05/31 14:06:04;;;;;;;;;7.25;4.00;;;;;;;;4954308;28;45400;-67
2023/05/31 14:08:30;;;;;;;;;3.50;3.50;;;;;;;;4954166;28;45502;-68
2023/05/31 14:10:55;;;;;;;;;3.50;3.00;;;;;;;;4953001;28;45554;-67
2023/05/31 14:13:21;;;;;;;;;4.25;3.00;;;;;;;;4950410;28;45428;-67
2023/05/31 14:15:47;;;;;;;;;3.50;3.50;;;;;;;;4947977;28;45421;-67
2023/05/31 14:18:12;;;;;;;;;3.75;3.75;;;;;;;;4953078;28;45920;-67
2023/05/31 14:20:37;;;;;;;;;3.75;3.75;;;;;;;;4957412;28;45349;-68
2023/05/31 14:23:03;;;;;;;;;4.50;4.00;;;;;;;;4941321;28;45374;-67